Time;durP1;ratioP1;P1;durP2;ratioP2;P2;SDS_P1;SDS_P2;PMS_P1;PMS_P2;Temp;Humidity;BMP_temperature;BMP_pressure;BME280_temperature;BME280_humidity;BME280_pressure;Samples;Min_cycle;Max_cycle;Signal;HPM_P1;HPM_P2
2021/12/07 00:00:51;;;;;;;6.57;3.42;;;;;;;3.49;88.53;93853.03;4993830;28;20099;-88
2021/12/07 00:03:17;;;;;;;6.93;3.53;;;;;;;2.46;87.82;93676.91;5011469;28;20121;-88
2021/12/07 00:05:43;;;;;;;4.85;2.63;;;;;;;3.40;88.04;93836.25;4993343;28;20097;-88
2021/12/07 00:08:09;;;;;;;6.45;2.95;;;;;;;1.44;88.07;93560.06;4993685;28;20398;-88
2021/12/07 00:10:37;;;;;;;5.05;2.08;;;;;;;4.10;88.19;93955.31;5011500;28;20037;-88
2021/12/07 00:13:03;;;;;;;3.42;2.40;;;;;;;4.10;88.09;93941.41;5010969;28;20034;-88
2021/12/07 00:15:30;;;;;;;4.47;2.10;;;;;;;2.74;87.17;93767.28;5011299;28;20041;-87
2021/12/07 00:17:56;;;;;;;8.68;2.47;;;;;;;3.21;88.00;93805.56;4993446;28;20033;-87
2021/12/07 00:20:23;;;;;;;5.40;2.90;;;;;;;3.93;87.77;93925.16;5010730;28;20112;-88
2021/12/07 00:22:52;;;;;;;5.38;2.80;;;;;;;1.41;87.27;93523.97;4993282;28;20045;-87
2021/12/07 00:25:18;;;;;;;9.80;3.70;;;;;;;3.97;87.60;93931.47;4992720;28;20486;-88
2021/12/07 00:27:43;;;;;;;5.70;3.10;;;;;;;3.19;87.28;93826.81;4993093;28;20191;-87
2021/12/07 00:30:11;;;;;;;6.40;3.38;;;;;;;3.68;87.94;93889.19;4993191;28;20034;-88
2021/12/07 00:32:42;;;;;;;5.65;3.42;;;;;;;4.03;87.52;93943.53;5010839;28;20038;-88
2021/12/07 00:37:51;;;;;;;6.78;3.03;;;;;;;3.25;87.58;93878.16;5010862;28;20121;-87
2021/12/07 00:40:19;;;;;;;5.50;2.92;;;;;;;3.07;88.13;93844.56;5009762;28;20104;-87
2021/12/07 00:42:45;;;;;;;5.40;3.22;;;;;;;2.23;88.08;93738.34;5010485;28;20428;-88
2021/12/07 00:45:15;;;;;;;4.00;2.58;;;;;;;3.49;87.81;93970.97;5009782;28;20061;-87
2021/12/07 00:47:40;;;;;;;6.07;2.40;;;;;;;2.54;88.72;93830.00;4992463;28;20103;-88
2021/12/07 00:50:08;;;;;;;5.85;2.97;;;;;;;3.55;88.83;93950.00;4992769;28;20572;-87
2021/12/07 00:52:34;;;;;;;2.97;2.25;;;;;;;2.45;88.34;93782.63;4992717;28;20038;-88
2021/12/07 00:55:00;;;;;;;4.38;2.85;;;;;;;2.78;88.65;93846.84;4995725;28;20426;-88
2021/12/07 00:57:26;;;;;;;3.67;2.33;;;;;;;3.24;88.75;93884.44;4994582;28;20112;-88
2021/12/07 00:59:51;;;;;;;4.13;1.92;;;;;;;2.79;88.21;93795.28;4993182;28;20034;-88
2021/12/07 01:02:17;;;;;;;4.25;2.35;;;;;;;1.77;87.28;93681.66;4992787;28;20048;-87
2021/12/07 01:04:51;;;;;;;4.35;1.80;;;;;;;2.82;87.27;93834.84;4993324;28;20133;-85
2021/12/07 01:07:37;;;;;;;3.63;1.65;;;;;;;3.01;87.99;93863.94;4994037;28;20040;-85
2021/12/07 01:26:27;;;;;;;4.03;1.70;;;;;;;0.68;88.25;93495.25;5011788;28;20080;-86
2021/12/07 01:28:52;;;;;;;2.92;1.67;;;;;;;3.66;89.68;93957.63;4993328;28;20117;-86
2021/12/07 01:31:28;;;;;;;10.20;2.88;;;;;;;3.75;89.55;93942.16;4992844;28;20044;-86
2021/12/07 01:34:16;;;;;;;5.65;2.30;;;;;;;1.12;87.84;93536.69;4993488;28;20099;-85
2021/12/07 01:45:27;;;;;;;6.03;3.03;;;;;;;2.87;88.60;93735.34;5011978;28;20531;-85
2021/12/07 01:50:42;;;;;;;2.47;1.55;;;;;;;3.47;88.38;93891.81;5013292;28;20421;-85
2021/12/07 02:01:06;;;;;;;2.20;1.10;;;;;;;2.76;87.68;93733.75;5010783;28;20524;-85
2021/12/07 02:03:32;;;;;;;11.02;1.45;;;;;;;3.05;87.13;93786.44;4992677;28;20030;-85
2021/12/07 02:05:57;;;;;;;2.78;1.48;;;;;;;3.40;88.05;93859.03;5011130;28;20068;-85
2021/12/07 02:08:23;;;;;;;2.15;1.25;;;;;;;3.02;86.91;93802.66;4994900;28;20445;-85
2021/12/07 02:10:53;;;;;;;1.77;1.15;;;;;;;2.85;86.81;93815.19;4994615;28;20092;-85
2021/12/07 02:14:01;;;;;;;5.32;1.58;;;;;;;2.71;87.94;93813.06;4993866;28;20088;-83
2021/12/07 02:16:06;;;;;;;4.50;1.20;;;;;;;0.42;87.02;93492.72;5011934;28;20042;-84
2021/12/07 02:18:31;;;;;;;2.33;1.00;;;;;;;3.08;87.44;93881.00;4993395;28;20080;-85
2021/12/07 02:21:13;;;;;;;3.03;1.13;;;;;;;2.41;88.40;93775.53;4993786;28;20554;-85
2021/12/07 02:23:38;;;;;;;7.28;1.45;;;;;;;2.50;89.04;93780.03;4991878;28;20041;-85
2021/12/07 02:26:04;;;;;;;3.65;1.20;;;;;;;2.16;88.12;93732.56;5009569;28;20034;-85
2021/12/07 02:28:29;;;;;;;4.95;1.27;;;;;;;2.40;88.81;93776.59;4990907;28;20036;-85
2021/12/07 02:30:55;;;;;;;4.72;1.52;;;;;;;1.57;89.38;93630.13;4990786;28;20056;-85
2021/12/07 02:33:20;;;;;;;4.72;1.45;;;;;;;-1.30;88.57;93203.22;4991026;28;20048;-86
2021/12/07 02:35:46;;;;;;;2.33;1.20;;;;;;;2.50;88.51;93793.13;4980283;28;20043;-85
2021/12/07 02:38:11;;;;;;;1.65;0.95;;;;;;;2.32;88.18;93790.94;4986499;28;20457;-86
2021/12/07 02:40:37;;;;;;;3.85;1.13;;;;;;;2.70;88.98;93834.25;4992109;28;20084;-85
2021/12/07 02:43:03;;;;;;;3.50;1.30;;;;;;;2.37;88.09;93766.63;5011455;28;20098;-87
2021/12/07 02:45:28;;;;;;;4.25;1.90;;;;;;;0.37;87.22;93496.88;5011299;28;20073;-87
2021/12/07 02:47:54;;;;;;;12.20;2.20;;;;;;;2.09;88.67;93752.94;4991444;28;20070;-88
2021/12/07 02:50:21;;;;;;;4.97;1.55;;;;;;;0.82;87.92;93549.56;5008718;28;20081;-87
2021/12/07 02:52:50;;;;;;;3.13;1.50;;;;;;;0.95;88.72;93589.06;4991338;28;20145;-86
2021/12/07 02:55:16;;;;;;;4.32;1.63;;;;;;;2.81;87.98;93869.13;4991091;28;20485;-86
2021/12/07 02:57:43;;;;;;;1.73;1.00;;;;;;;-0.63;87.64;93393.47;4993677;28;20087;-85
2021/12/07 03:00:17;;;;;;;4.00;1.00;;;;;;;1.92;88.04;93747.88;4994336;28;20036;-86
2021/12/07 03:02:49;;;;;;;8.27;0.90;;;;;;;1.99;87.53;93752.88;5013669;28;20030;-86
2021/12/07 03:05:33;;;;;;;2.08;0.60;;;;;;;1.88;86.58;93770.34;5015378;28;20103;-85
2021/12/07 03:26:52;;;;;;;1.48;0.80;;;;;;;1.79;87.28;93794.59;5014605;28;20065;-86
2021/12/07 03:29:18;;;;;;;1.55;0.57;;;;;;;1.85;86.70;93810.06;5013061;28;20497;-85
2021/12/07 03:31:43;;;;;;;1.10;0.60;;;;;;;2.28;86.96;93857.91;4995779;28;20034;-85
2021/12/07 03:34:09;;;;;;;2.50;1.17;;;;;;;1.00;86.92;93658.78;5013819;28;20302;-86
2021/12/07 03:36:35;;;;;;;2.55;0.70;;;;;;;2.39;88.22;93888.31;4996624;28;20032;-86
2021/12/07 03:39:05;;;;;;;1.80;0.90;;;;;;;1.87;87.35;93812.44;4995594;28;20048;-86
2021/12/07 03:41:30;;;;;;;3.85;0.80;;;;;;;0.73;87.07;93677.91;4995946;28;20110;-85
2021/12/07 03:43:57;;;;;;;2.38;0.90;;;;;;;1.91;87.94;93837.00;5013386;28;20122;-86
2021/12/07 03:46:23;;;;;;;0.82;0.70;;;;;;;1.26;87.80;93738.09;4994548;28;20041;-86
2021/12/07 03:48:49;;;;;;;0.88;0.68;;;;;;;1.10;87.33;93704.03;4995476;28;20026;-86
2021/12/07 03:51:14;;;;;;;4.68;1.10;;;;;;;1.34;87.55;93740.22;5013377;28;20034;-86
2021/12/07 03:53:40;;;;;;;3.40;1.00;;;;;;;1.48;87.52;93776.13;4994478;28;20034;-84
2021/12/07 03:56:07;;;;;;;3.88;1.08;;;;;;;1.52;87.20;93789.47;4994819;28;20120;-85
2021/12/07 03:58:33;;;;;;;2.67;1.25;;;;;;;1.20;86.80;93737.25;4993456;28;20101;-86
2021/12/07 04:00:59;;;;;;;2.25;1.35;;;;;;;1.07;88.56;93695.88;4993569;28;20405;-86
2021/12/07 04:03:25;;;;;;;2.63;1.52;;;;;;;0.54;87.98;93628.94;5012414;28;20030;-85
2021/12/07 04:05:55;;;;;;;2.70;1.33;;;;;;;1.67;88.42;93792.19;4994509;28;20030;-86
2021/12/07 04:08:26;;;;;;;2.45;1.20;;;;;;;1.40;87.60;93765.34;5010932;28;20771;-86
2021/12/07 04:10:53;;;;;;;1.65;1.08;;;;;;;1.73;86.67;93803.47;5010997;28;20033;-86
2021/12/07 04:13:19;;;;;;;2.25;1.00;;;;;;;1.27;86.72;93748.28;5011786;28;20107;-85
2021/12/07 04:15:45;;;;;;;1.73;1.15;;;;;;;1.76;86.96;93829.88;4995041;28;20025;-86
2021/12/07 04:18:11;;;;;;;0.98;0.90;;;;;;;2.25;87.80;93887.19;4994925;28;20034;-86
2021/12/07 04:20:37;;;;;;;1.65;1.10;;;;;;;1.89;86.92;93834.69;4994702;28;20022;-86
2021/12/07 04:23:04;;;;;;;2.05;1.45;;;;;;;2.29;86.27;93893.47;5012956;28;20080;-86
2021/12/07 04:25:30;;;;;;;2.15;1.05;;;;;;;2.11;87.24;93884.22;4995039;28;20321;-85
2021/12/07 04:27:57;;;;;;;2.75;1.48;;;;;;;2.00;87.00;93853.81;5012650;28;20060;-86
2021/12/07 04:30:30;;;;;;;5.07;1.77;;;;;;;2.17;87.62;93885.81;4995823;28;20057;-85
2021/12/07 04:32:59;;;;;;;5.47;1.65;;;;;;;2.16;87.18;93865.94;4995783;28;20034;-86
2021/12/07 04:35:25;;;;;;;5.82;2.30;;;;;;;-0.86;86.99;93418.00;4995327;28;20112;-86
2021/12/07 04:37:51;;;;;;;3.78;1.98;;;;;;;2.07;87.02;93885.75;5014167;28;20037;-86
2021/12/07 04:40:20;;;;;;;4.82;2.13;;;;;;;1.66;87.69;93852.53;5012403;28;20030;-86
2021/12/07 04:42:46;;;;;;;3.72;1.35;;;;;;;-0.47;86.69;93495.94;4993635;28;20180;-86
2021/12/07 04:45:25;;;;;;;5.90;1.33;;;;;;;1.60;87.42;93861.38;4993792;28;20057;-86
2021/12/07 04:58:34;;;;;;;3.30;1.75;;;;;;;-3.40;86.77;93145.81;5012787;28;20049;-86
2021/12/07 05:01:06;;;;;;;2.20;1.50;;;;;;;1.13;87.61;93804.56;5012607;28;20477;-86
2021/12/07 05:03:31;;;;;;;3.42;1.38;;;;;;;-1.77;86.77;93388.38;4994773;28;20033;-86
2021/12/07 05:05:57;;;;;;;4.47;1.77;;;;;;;-3.29;87.69;93177.88;5012394;28;20367;-86
2021/12/07 05:08:44;;;;;;;3.15;1.90;;;;;;;-2.15;87.51;93345.00;4993683;28;20780;-85
2021/12/07 05:14:20;;;;;;;4.00;1.95;;;;;;;-4.08;86.41;93096.84;5010215;28;20124;-86
2021/12/07 05:24:52;;;;;;;3.55;2.00;;;;;;;1.08;88.58;93883.63;5011180;28;20040;-86
2021/12/07 05:38:26;;;;;;;9.75;3.95;;;;;;;-4.10;87.48;93128.13;4996784;28;20033;-86
2021/12/07 05:40:52;;;;;;;14.45;4.03;;;;;;;-1.17;87.80;93585.97;5000325;28;20026;-84
2021/12/07 05:43:18;;;;;;;7.68;4.00;;;;;;;-2.29;88.50;93421.69;4983852;28;20051;-86
2021/12/07 05:45:44;;;;;;;13.60;3.25;;;;;;;-3.05;87.68;93227.75;4993611;28;20037;-87
2021/12/07 05:48:14;;;;;;;3.47;2.33;;;;;;;-3.15;87.21;93283.59;4981082;28;20319;-86
2021/12/07 05:50:41;;;;;;;6.25;2.40;;;;;;;-4.60;86.83;93080.69;4977909;28;20568;-86
2021/12/07 05:53:08;;;;;;;4.78;2.45;;;;;;;-4.87;87.30;92977.81;4979271;28;20523;-86
2021/12/07 05:55:36;;;;;;;7.78;2.22;;;;;;;-4.42;86.74;93054.59;4981819;28;20076;-85
2021/12/07 05:58:02;;;;;;;6.28;2.60;;;;;;;-5.24;87.38;92954.16;5000459;28;20052;-85
2021/12/07 06:00:31;;;;;;;4.00;2.10;;;;;;;0.48;87.89;93916.88;4981311;28;20034;-85
2021/12/07 06:03:00;;;;;;;7.38;3.10;;;;;;;-4.89;87.26;93023.03;4984523;28;20038;-85
2021/12/07 06:05:26;;;;;;;3.22;2.20;;;;;;;-1.66;87.84;93547.81;4992766;28;20030;-87
2021/12/07 06:07:52;;;;;;;7.93;3.25;;;;;;;0.35;88.80;93866.66;4994645;28;20045;-86
2021/12/07 06:10:19;;;;;;;9.30;3.10;;;;;;;-1.47;87.85;93580.34;4997999;28;20037;-86
2021/12/07 06:12:46;;;;;;;12.95;3.70;;;;;;;-1.73;88.39;93586.16;4995186;28;20034;-87
2021/12/07 06:15:16;;;;;;;9.68;3.47;;;;;;;-1.64;88.13;93569.94;4982347;28;20514;-86
2021/12/07 06:17:49;;;;;;;15.07;4.38;;;;;;;-2.38;88.49;93449.84;4976334;28;20022;-86
2021/12/07 06:20:18;;;;;;;4.43;3.00;;;;;;;0.39;87.83;93888.59;4977928;28;20037;-85
2021/12/07 06:22:44;;;;;;;7.97;3.50;;;;;;;-4.61;88.19;93131.63;4984454;28;20144;-85
2021/12/07 06:25:10;;;;;;;9.82;3.28;;;;;;;-5.02;87.99;93080.13;4997108;28;20558;-85
2021/12/07 06:27:41;;;;;;;5.35;2.92;;;;;;;-5.05;87.89;93060.72;4982852;28;20261;-86
2021/12/07 06:30:11;;;;;;;7.20;3.03;;;;;;;-0.06;88.54;93828.03;5000359;28;20454;-83
2021/12/07 06:32:37;;;;;;;6.68;3.42;;;;;;;-0.61;88.36;93765.53;5000311;28;20048;-85
2021/12/07 06:35:04;;;;;;;7.32;3.10;;;;;;;-0.30;88.37;93811.81;4987061;28;20033;-84
2021/12/07 06:37:30;;;;;;;3.53;2.60;;;;;;;0.27;88.47;93879.31;5000922;28;20034;-86
2021/12/07 06:39:56;;;;;;;5.80;3.20;;;;;;;-0.56;88.10;93757.78;5002975;28;20510;-85
2021/12/07 06:42:22;;;;;;;5.07;2.45;;;;;;;-0.54;87.96;93753.16;5001978;28;20045;-85
2021/12/07 06:44:48;;;;;;;4.15;2.42;;;;;;;-0.25;87.38;93792.88;5000453;28;20650;-85
2021/12/07 06:47:13;;;;;;;3.45;2.20;;;;;;;-0.90;87.32;93703.16;4984311;28;20042;-86
2021/12/07 06:49:39;;;;;;;9.30;2.85;;;;;;;-0.38;87.56;93817.41;5005889;28;20034;-86
2021/12/07 06:52:05;;;;;;;14.57;3.17;;;;;;;-0.71;88.12;93729.72;4982428;28;20167;-83
2021/12/07 06:54:31;;;;;;;8.52;3.58;;;;;;;-0.84;88.66;93715.22;5005430;28;20129;-85
2021/12/07 06:56:56;;;;;;;19.80;5.85;;;;;;;-0.41;88.55;93807.50;4988318;28;20120;-86
2021/12/07 06:59:22;;;;;;;12.25;3.17;;;;;;;0.15;88.03;93870.81;4987328;28;20033;-86
2021/12/07 07:01:48;;;;;;;6.38;2.55;;;;;;;-2.30;87.98;93497.19;5000661;28;20029;-86
2021/12/07 07:04:14;;;;;;;14.07;3.30;;;;;;;-0.17;88.43;93841.97;4995737;28;20194;-84
2021/12/07 07:06:42;;;;;;;4.63;2.80;;;;;;;-1.07;88.52;93679.00;4984398;28;20152;-86
2021/12/07 07:09:09;;;;;;;7.18;2.90;;;;;;;-0.72;88.25;93742.97;5000880;28;20065;-86
2021/12/07 07:11:35;;;;;;;6.63;3.00;;;;;;;0.11;88.01;93882.72;4979473;28;20220;-86
2021/12/07 07:14:01;;;;;;;8.50;3.20;;;;;;;-0.67;88.42;93754.25;4996879;28;21349;-84
2021/12/07 07:16:28;;;;;;;8.23;3.45;;;;;;;-0.46;88.60;93773.56;4997629;28;20038;-85
2021/12/07 07:18:59;;;;;;;7.97;4.05;;;;;;;-2.91;88.51;93394.97;4980579;28;20233;-86
2021/12/07 07:21:24;;;;;;;14.13;4.75;;;;;;;-1.82;88.73;93580.56;5003607;28;20026;-86
2021/12/07 07:23:51;;;;;;;10.95;4.03;;;;;;;-0.17;89.27;93839.34;4990786;28;20026;-87
2021/12/07 07:26:17;;;;;;;9.63;3.60;;;;;;;-2.34;88.85;93538.41;5006019;28;20038;-86
2021/12/07 07:28:43;;;;;;;5.82;3.35;;;;;;;-5.88;88.20;93014.63;4993984;28;20030;-86
2021/12/07 07:31:10;;;;;;;11.75;4.30;;;;;;;-2.12;88.78;93544.50;5008794;28;20037;-87
2021/12/07 07:33:38;;;;;;;7.75;3.63;;;;;;;-0.47;89.27;93879.56;5009573;28;20059;-86
2021/12/07 07:36:04;;;;;;;11.60;3.83;;;;;;;-2.37;88.73;93554.47;4992559;28;20022;-85
2021/12/07 07:38:30;;;;;;;8.85;4.68;;;;;;;-3.37;88.93;93434.84;5008577;28;20140;-86
2021/12/07 07:40:56;;;;;;;6.00;3.85;;;;;;;-0.89;89.65;93816.66;4993680;28;20489;-86
2021/12/07 07:43:22;;;;;;;9.35;4.28;;;;;;;-5.37;89.53;93072.47;5006904;28;20037;-84
2021/12/07 07:45:55;;;;;;;21.38;4.60;;;;;;;-2.89;89.52;93526.00;4989959;28;20051;-84
2021/12/07 07:48:24;;;;;;;8.50;4.00;;;;;;;-2.31;89.34;93612.47;5002977;28;20038;-83
2021/12/07 07:50:51;;;;;;;13.90;4.40;;;;;;;-6.17;88.72;92980.19;4992236;28;20040;-84
2021/12/07 07:53:18;;;;;;;6.68;4.00;;;;;;;-1.98;89.55;93579.53;5009400;28;20037;-85
2021/12/07 07:55:44;;;;;;;11.45;4.07;;;;;;;-5.40;89.44;93053.03;4989929;28;20034;-86
2021/12/07 07:58:11;;;;;;;6.57;3.67;;;;;;;-3.17;89.51;93464.53;4998887;28;20026;-85
2021/12/07 08:00:38;;;;;;;14.48;4.57;;;;;;;-3.95;89.83;93321.81;5003765;28;20508;-87
2021/12/07 08:03:05;;;;;;;8.43;4.10;;;;;;;-2.59;89.56;93538.00;5010023;28;20034;-87
2021/12/07 08:05:32;;;;;;;16.38;4.72;;;;;;;-3.54;89.04;93352.66;4997861;28;20139;-85
2021/12/07 08:07:58;;;;;;;9.57;3.95;;;;;;;-2.25;89.19;93531.03;5001721;28;20044;-85
2021/12/07 08:10:29;;;;;;;9.07;4.25;;;;;;;-5.40;89.14;93106.50;5006878;28;20038;-88
2021/12/07 08:13:02;;;;;;;10.13;4.22;;;;;;;-5.33;89.86;93114.91;5011024;28;20030;-86
2021/12/07 08:15:31;;;;;;;6.15;3.60;;;;;;;-2.29;89.68;93579.28;4994866;28;20038;-86
2021/12/07 08:17:58;;;;;;;6.72;4.72;;;;;;;-2.30;90.09;93601.84;4992339;28;20112;-86
2021/12/07 08:20:36;;;;;;;7.03;4.43;;;;;;;-2.52;90.15;93604.31;4992960;28;20441;-87
2021/12/07 08:23:05;;;;;;;8.68;4.00;;;;;;;-4.10;89.72;93342.22;5007601;28;20497;-87
2021/12/07 08:25:56;;;;;;;9.77;4.10;;;;;;;-5.58;89.57;93081.59;4990082;28;20100;-87
2021/12/07 08:28:28;;;;;;;5.00;3.50;;;;;;;-6.12;89.79;92979.53;4994162;28;20076;-89
2021/12/07 08:30:54;;;;;;;8.00;4.07;;;;;;;-6.52;89.56;92956.19;4989446;28;20038;-87
2021/12/07 08:33:23;;;;;;;9.90;4.78;;;;;;;-2.68;90.51;93583.50;4993519;28;20095;-88
2021/12/07 08:35:51;;;;;;;9.43;5.65;;;;;;;-5.49;89.79;93075.06;4993188;28;20026;-87
2021/12/07 08:38:27;;;;;;;8.88;5.63;;;;;;;-0.14;90.52;93898.78;5006369;28;20030;-87
2021/12/07 08:41:09;;;;;;;7.88;4.55;;;;;;;-3.45;89.65;93437.81;4994129;28;20034;-87
2021/12/07 08:43:36;;;;;;;6.70;4.93;;;;;;;-0.28;89.70;93874.88;4984547;28;20038;-86
2021/12/07 08:46:03;;;;;;;7.95;4.65;;;;;;;-0.19;89.53;93899.53;4990665;28;20087;-86
2021/12/07 08:48:35;;;;;;;8.70;4.07;;;;;;;-0.84;89.66;93810.75;4987952;28;20061;-86
2021/12/07 08:51:02;;;;;;;7.68;4.50;;;;;;;-0.12;89.82;93917.59;4987025;28;20096;-86
2021/12/07 08:53:31;;;;;;;5.22;3.78;;;;;;;-4.10;89.36;93306.75;5000499;28;20037;-87
2021/12/07 09:01:31;;;;;;;8.93;4.90;;;;;;;-2.95;89.70;93488.03;5001657;28;20044;-87
2021/12/07 09:03:57;;;;;;;8.32;4.80;;;;;;;-0.70;89.95;93843.25;4999230;28;20637;-85
2021/12/07 09:06:24;;;;;;;5.65;3.80;;;;;;;-3.88;88.67;93345.75;4985287;28;20022;-87
2021/12/07 09:08:49;;;;;;;5.55;3.60;;;;;;;-2.61;89.33;93566.75;5003720;28;20807;-87
2021/12/07 09:11:16;;;;;;;6.93;3.78;;;;;;;-5.58;89.21;93086.78;4988349;28;20034;-88
2021/12/07 09:13:42;;;;;;;11.05;3.50;;;;;;;-0.15;89.41;93936.31;4987426;28;20559;-86
2021/12/07 09:16:10;;;;;;;9.85;3.80;;;;;;;-0.26;89.63;93903.31;5007604;28;20516;-87
2021/12/07 09:18:36;;;;;;;11.25;4.03;;;;;;;-1.33;90.09;93753.22;4991270;28;20029;-86
2021/12/07 09:21:03;;;;;;;11.95;5.10;;;;;;;-0.20;90.00;93912.78;5008861;28;20029;-86
2021/12/07 09:23:32;;;;;;;15.50;5.55;;;;;;;-2.70;89.82;93511.06;4989442;28;20038;-86
2021/12/07 09:25:57;;;;;;;6.05;3.75;;;;;;;-2.20;89.67;93593.44;4989170;28;20030;-89
2021/12/07 09:28:26;;;;;;;7.57;4.28;;;;;;;-0.15;90.19;93916.25;4990060;28;20049;-87
2021/12/07 09:30:52;;;;;;;14.48;5.05;;;;;;;-0.14;89.93;93933.47;4985553;28;20049;-87
2021/12/07 09:33:20;;;;;;;12.60;5.93;;;;;;;-2.54;89.83;93590.78;4989842;28;20054;-86
2021/12/07 09:35:47;;;;;;;5.35;3.75;;;;;;;-0.28;89.36;93911.34;4987943;28;20034;-87
2021/12/07 09:38:13;;;;;;;10.90;4.63;;;;;;;-1.08;89.95;93802.28;4998682;28;20030;-87
2021/12/07 10:34:03;;;;;;;7.28;4.82;;;;;;;-0.06;89.86;93873.13;5018544;28;20531;-82
2021/12/07 10:36:33;;;;;;;9.45;5.95;;;;;;;-2.61;88.97;93520.03;4918795;28;20055;-85
2021/12/07 10:39:12;;;;;;;15.20;6.40;;;;;;;0.08;89.27;93876.19;4940622;28;20514;-85
2021/12/07 10:41:41;;;;;;;9.77;4.53;;;;;;;-2.45;88.81;93500.34;4947447;28;20098;-86
2021/12/07 10:44:15;;;;;;;7.03;3.85;;;;;;;-3.58;88.16;93330.78;4912972;28;20055;-83
2021/12/07 10:46:56;;;;;;;8.52;4.78;;;;;;;0.09;89.35;93874.34;4950058;28;20102;-84
2021/12/07 10:49:47;;;;;;;14.77;5.82;;;;;;;0.14;89.04;93872.63;4947106;28;20047;-86
2021/12/07 10:52:28;;;;;;;12.45;5.45;;;;;;;0.25;88.83;93895.19;4920801;28;20051;-86
2021/12/07 10:55:10;;;;;;;10.73;4.82;;;;;;;0.17;88.61;93876.56;4937926;28;20134;-86
2021/12/07 10:57:52;;;;;;;8.32;4.47;;;;;;;-0.68;88.54;93781.31;4935535;28;20039;-87
2021/12/07 11:00:32;;;;;;;13.30;4.75;;;;;;;-0.38;87.87;93856.50;4923912;28;20122;-86
2021/12/07 11:03:05;;;;;;;9.07;4.60;;;;;;;-5.24;88.21;93111.75;4924208;28;20047;-86
2021/12/07 11:05:41;;;;;;;18.48;6.55;;;;;;;-3.32;88.35;93381.28;4925466;28;20074;-86
2021/12/07 11:08:09;;;;;;;13.35;5.88;;;;;;;-6.04;88.22;93008.34;4929745;28;20043;-87
2021/12/07 11:10:52;;;;;;;9.80;5.57;;;;;;;-5.50;88.13;93063.19;4943273;28;20637;-87
2021/12/07 11:13:36;;;;;;;11.23;5.75;;;;;;;-3.44;88.44;93392.72;4928362;28;20114;-87
2021/12/07 11:16:41;;;;;;;12.30;6.88;;;;;;;-2.26;88.98;93495.69;4942789;28;20035;-89
2021/12/07 11:19:21;;;;;;;7.32;4.85;;;;;;;-0.17;88.33;93839.34;4938735;28;20086;-87
2021/12/07 11:21:50;;;;;;;11.70;6.68;;;;;;;-5.16;88.75;93108.84;4922272;28;20122;-85
2021/12/07 11:24:18;;;;;;;9.77;5.05;;;;;;;-3.62;87.65;93420.38;4932284;29;20035;-87
2021/12/07 11:29:42;;;;;;;11.98;5.40;;;;;;;-1.76;88.65;93647.22;4946588;28;20376;-85
2021/12/07 11:32:09;;;;;;;5.43;4.22;;;;;;;-5.09;87.19;93152.63;4940545;28;20047;-86
2021/12/07 11:34:45;;;;;;;26.02;10.30;;;;;;;-5.58;87.54;93038.50;4951026;28;20064;-88
2021/12/07 11:37:12;;;;;;;8.60;4.90;;;;;;;-3.57;87.45;93352.31;4959595;28;20050;-88
2021/12/07 11:39:48;;;;;;;7.10;4.65;;;;;;;-5.33;86.53;93089.06;4958175;28;20446;-88
2021/12/07 11:42:21;;;;;;;10.23;5.85;;;;;;;-2.89;87.42;93474.13;4931691;28;20062;-87
2021/12/07 11:45:01;;;;;;;5.43;4.20;;;;;;;-3.48;86.92;93326.81;4942869;28;20510;-87
2021/12/07 11:47:39;;;;;;;9.35;5.20;;;;;;;-2.26;87.15;93521.66;4942678;28;20056;-86
2021/12/07 11:50:20;;;;;;;7.50;4.28;;;;;;;-1.85;86.36;93585.47;4958920;28;20045;-85
2021/12/07 11:52:54;;;;;;;8.15;4.60;;;;;;;-5.41;87.11;93024.84;4940894;28;20137;-87
2021/12/07 11:55:21;;;;;;;9.18;4.38;;;;;;;-3.62;86.80;93381.53;4964057;28;20098;-86
2021/12/07 11:57:48;;;;;;;6.05;3.63;;;;;;;-2.06;86.28;93599.94;4941071;28;20126;-86
2021/12/07 12:00:20;;;;;;;6.38;4.00;;;;;;;-4.33;86.19;93229.97;4940466;28;20671;-87
2021/12/07 12:02:47;;;;;;;13.90;5.32;;;;;;;-3.36;87.52;93366.44;4939029;28;20296;-85
2021/12/07 12:05:12;;;;;;;7.47;4.95;;;;;;;-1.01;86.47;93735.28;4939810;28;20089;-86
2021/12/07 12:07:41;;;;;;;7.63;5.30;;;;;;;-0.59;87.50;93792.91;4953757;28;20035;-87
2021/12/07 12:10:09;;;;;;;8.38;5.22;;;;;;;-5.30;86.92;93026.63;4939275;28;20043;-86
2021/12/07 12:13:07;;;;;;;8.43;5.10;;;;;;;-0.16;87.34;93825.31;4957300;28;20039;-86
2021/12/07 12:15:38;;;;;;;9.77;4.78;;;;;;;0.02;86.71;93845.84;4940863;28;20529;-88
2021/12/07 12:18:34;;;;;;;7.25;4.15;;;;;;;-2.71;85.71;93413.47;4960585;28;20451;-87
2021/12/07 12:21:19;;;;;;;7.40;4.63;;;;;;;-4.57;85.30;93206.94;4943907;28;20142;-86
2021/12/07 12:24:22;;;;;;;9.48;4.93;;;;;;;-0.08;85.75;93849.09;4942495;28;20053;-86
2021/12/07 12:26:49;;;;;;;9.50;5.95;;;;;;;-3.89;86.10;93272.47;4948480;28;20520;-87
2021/12/07 12:29:23;;;;;;;14.02;7.07;;;;;;;-5.51;86.65;92990.06;4938063;28;20046;-87
2021/12/07 12:31:49;;;;;;;11.38;6.40;;;;;;;0.09;86.22;93848.28;4959694;28;20161;-87
2021/12/07 12:34:19;;;;;;;11.75;5.35;;;;;;;-5.39;85.37;92984.06;4942634;28;20347;-87
2021/12/07 12:36:58;;;;;;;8.02;5.22;;;;;;;-5.64;85.43;92955.94;4959218;28;20057;-85
2021/12/07 12:39:44;;;;;;;9.60;6.50;;;;;;;0.06;86.26;93825.34;4940734;28;20291;-84
2021/12/07 12:42:14;;;;;;;7.97;5.38;;;;;;;0.09;86.39;93833.44;4957198;28;20047;-86
2021/12/07 12:44:40;;;;;;;11.38;6.35;;;;;;;-4.18;86.23;93198.41;4942606;28;20518;-86
2021/12/07 12:47:06;;;;;;;8.43;5.32;;;;;;;-0.50;86.44;93736.78;4945083;28;20090;-86
2021/12/07 12:49:40;;;;;;;9.15;5.93;;;;;;;-0.34;85.96;93782.06;4935214;28;20045;-86
2021/12/07 12:52:06;;;;;;;11.52;6.28;;;;;;;0.25;86.53;93844.84;4938771;28;20150;-86
2021/12/07 12:54:44;;;;;;;12.05;6.55;;;;;;;-0.36;85.80;93785.94;4944198;28;20482;-88
2021/12/07 12:57:22;;;;;;;10.32;6.72;;;;;;;-0.23;85.81;93804.59;4947325;28;20058;-87
2021/12/07 12:59:48;;;;;;;10.05;6.97;;;;;;;-0.76;86.15;93711.41;4955091;28;20092;-86
2021/12/07 13:02:14;;;;;;;9.77;6.55;;;;;;;-2.15;86.06;93513.81;4940080;28;20558;-88
2021/12/07 13:04:40;;;;;;;8.88;5.88;;;;;;;-0.13;85.18;93830.03;4941127;28;20042;-86
2021/12/07 13:07:23;;;;;;;7.80;4.35;;;;;;;-3.38;85.32;93355.53;4932441;28;20356;-86
2021/12/07 13:09:57;;;;;;;7.97;5.60;;;;;;;-2.47;85.67;93541.31;4952670;28;20095;-86
2021/12/07 13:12:33;;;;;;;13.85;7.07;;;;;;;-0.74;87.18;93750.22;4892500;28;20764;-88
2021/12/07 13:15:18;;;;;;;9.12;5.23;;;;;;;-1.66;86.48;93667.38;838199;28;10002961;-89
2021/12/07 13:17:48;;;;;;;10.27;6.65;;;;;;;-0.08;86.15;93859.53;4963025;28;20252;-88
2021/12/07 13:20:31;;;;;;;9.30;5.20;;;;;;;-0.34;86.66;93821.13;4943331;28;20323;-86
2021/12/07 13:22:59;;;;;;;7.43;4.90;;;;;;;-0.14;85.29;93877.94;4956246;28;20034;-86
2021/12/07 13:25:26;;;;;;;7.63;4.97;;;;;;;-2.57;85.45;93497.78;4940495;28;20042;-85
2021/12/07 13:28:10;;;;;;;11.18;6.13;;;;;;;-0.15;85.50;93874.56;4965441;28;20039;-85
2021/12/07 13:30:44;;;;;;;13.63;7.55;;;;;;;-0.04;86.13;93872.88;4960504;28;20561;-86
2021/12/07 13:33:31;;;;;;;13.48;7.30;;;;;;;-2.92;85.80;93476.41;4939442;28;20057;-85
2021/12/07 13:35:58;;;;;;;11.68;7.60;;;;;;;-1.96;85.67;93589.69;4938153;28;20055;-86
2021/12/07 13:38:30;;;;;;;14.07;8.00;;;;;;;0.01;86.71;93875.56;4959330;28;20185;-85
2021/12/07 13:41:21;;;;;;;12.57;7.07;;;;;;;-0.03;84.65;93867.44;4946010;28;20034;-86
2021/12/07 13:43:51;;;;;;;11.15;6.35;;;;;;;-5.32;84.30;93093.22;4945489;28;20039;-86
2021/12/07 13:46:25;;;;;;;9.75;6.82;;;;;;;-3.80;84.53;93371.31;4941022;28;20877;-86
2021/12/07 13:49:04;;;;;;;11.77;7.43;;;;;;;-6.11;85.09;93028.34;4959022;28;20073;-86
2021/12/07 13:51:30;;;;;;;11.88;6.15;;;;;;;-3.97;82.81;93306.50;4941807;28;20031;-87
2021/12/07 13:53:56;;;;;;;7.45;5.38;;;;;;;-0.27;83.92;93996.31;4942056;28;20039;-85
2021/12/07 13:56:22;;;;;;;9.25;5.28;;;;;;;-1.24;83.85;93749.22;4941133;28;20557;-87
2021/12/07 13:58:55;;;;;;;10.15;5.72;;;;;;;-2.70;84.49;93551.78;4940888;28;20042;-86
2021/12/07 14:01:28;;;;;;;8.65;5.78;;;;;;;-6.17;82.63;93010.34;4941223;28;20042;-87
2021/12/07 14:03:59;;;;;;;8.40;5.60;;;;;;;-2.51;84.87;93631.81;4959825;28;20229;-86
2021/12/07 14:06:37;;;;;;;8.55;4.75;;;;;;;-4.66;84.02;93338.47;4942431;28;20047;-86
2021/12/07 14:09:11;;;;;;;8.85;4.72;;;;;;;-3.30;84.22;93451.06;4940902;28;20398;-86
2021/12/07 14:11:39;;;;;;;9.15;5.40;;;;;;;-2.65;84.71;93567.44;4939168;28;20046;-86
2021/12/07 14:14:18;;;;;;;8.00;5.32;;;;;;;-4.28;84.68;93356.09;4957460;28;20039;-86
2021/12/07 14:16:44;;;;;;;7.30;4.28;;;;;;;-3.11;84.69;93577.72;4956036;28;20184;-83
2021/12/07 14:19:26;;;;;;;8.02;4.93;;;;;;;-4.50;84.78;93309.28;4961727;28;20046;-86